Details From EIDW - Dublin
To EGAA - Belfast Aldergrove
Flight Number -
Tags decoded
Created
Modified
Stats Distance 74 nm / 136 km
Max Altitude 0 ft / 0 m
Waypoints 4
Social Downloads 1
Likes 0
Share

Download

Looking for another format? Having issues loading an existing format? Contact us
Advertisement - Login to hide

Notes

Requested: EIDW NEVRI N34 ABSUN EGAA

Route

EIDW NEVRI ABSUN EGAA

ID Type Via Altitude (ft/m) Position (lat/lon) Dist (leg/tot) Name
O EIDW APT - 0 / 0 53.42826 / -6.25955 - / 0 nm Dublin
NEVRI FIX - 0 / 0 54.06833 / -6.27000 38 / 38 nm
ABSUN FIX - 0 / 0 54.29222 / -6.25500 13 / 51 nm
O EGAA APT - 0 / 0 54.65388 / -6.22001 21 / 73 nm Belfast Aldergrove

Altitude Profile

Advertisement - Login to hide

EIDW

Details ICAO EIDW (DUB)
Name Dublin
Region Ireland
Timezone Europe/Dublin (UTC+1.0)
Stats Elevation 240 ft / 73 m (AMSL)
Location 53.424900° -6.263080°
Runways 2
Magnetic Variation 2.621° W

METAR

EIDW 271600Z 09011KT 9999 FEW030 SCT300 18/09 Q1036 NOSIG

Decode

TAF

TAF EIDW 271100Z 2712/2812 12008KT 9999 FEW020 TEMPO 2803/2808 VRB03KT

Decode

Departure Runways

ID Width Length Bearing (true/mag) Surface Threshold Overrun Markings Lighting
10 148 ft / 45 m 8,660 ft / 2,640 m 95.26° / 97.88° ASPHALT 0 ft / 0 m 0 ft / 0 m PREC-APP CENTERLINE EDGE THRESHOLD ALSF-II TDZ REIL-OMNI
16 190 ft / 58 m 6,805 ft / 2,074 m 156.64° / 159.26° ASPHALT 0 ft / 0 m 0 ft / 0 m PREC-APP EDGE THRESHOLD SSALR REIL-OMNI
28 148 ft / 45 m 8,660 ft / 2,640 m 275.29° / 277.91° ASPHALT 0 ft / 0 m 0 ft / 0 m PREC-APP CENTERLINE EDGE THRESHOLD ALSF-II TDZ REIL-OMNI
34 190 ft / 58 m 6,805 ft / 2,074 m 336.65° / 339.27° ASPHALT 0 ft / 0 m 0 ft / 0 m PREC-APP EDGE THRESHOLD SSALF REIL-OMNI

EGAA

Details ICAO EGAA (BFS)
Name Belfast International
Region United Kingdom
Timezone Europe/London (UTC+1.0)
Stats Elevation 268 ft / 82 m (AMSL)
Location 54.653900° -6.219940°
Runways 2
Magnetic Variation 2.825° W

METAR

EGAA 271620Z 14006KT 090V190 CAVOK 18/09 Q1036

Decode

TAF

TAF EGAA 271100Z 2712/2812 13005KT 9999 SCT030= TAF EGPD 271057Z 2712/2812 34010KT 9999 SCT030 BECMG 2712/2714 13009KT PROB30 TEMPO 2720/2802 7000 -RA PROB40 TEMPO 2802/2806 4000 BR RADZ BKN012 PROB30 TEMPO 2809/2812 30010KT

Decode

Destination Runways

ID Width Length Bearing (true/mag) Surface Threshold Overrun Markings Lighting
07 147 ft / 45 m 9,124 ft / 2,781 m 65.01° / 67.84° ASPHALT 0 ft / 0 m 0 ft / 0 m APP CENTERLINE EDGE THRESHOLD CALVERT
17 148 ft / 45 m 5,909 ft / 1,801 m 161.99° / 164.82° ASPHALT 525 ft / 160 m 0 ft / 0 m PREC-APP EDGE THRESHOLD CALVERT
25 147 ft / 45 m 9,124 ft / 2,781 m 245.05° / 247.87° ASPHALT 0 ft / 0 m 0 ft / 0 m PREC-APP CENTERLINE EDGE THRESHOLD CALVERT TDZ
35 148 ft / 45 m 5,909 ft / 1,801 m 342.00° / 344.82° ASPHALT 502 ft / 153 m 0 ft / 0 m APP EDGE THRESHOLD MALS

Approach Navaids

Runway Type Ident Frequency Range Bearing (true/mag) Slope Elevation
17 GS IFT 110.90 MHz 10 nm / 19 km 162.97° / 165.80 ° 3.00° 253 ft / 77 m (AMSL)
17 LOC-ILS IFT 110.90 MHz 18 nm / 33 km 162.00° / 164.82 ° - 258 ft / 79 m (AMSL)
17 DME IFT 110.90 MHz 18 nm / 33 km - - 253 ft / 77 m (AMSL)
25 OM OM - - 245.03° / 247.85 ° - 268 ft / 82 m (AMSL)
25 DME IAG 109.90 MHz 18 nm / 33 km - - 305 ft / 93 m (AMSL)
25 LOC-ILS IAG 109.90 MHz 18 nm / 33 km 245.01° / 247.84 ° - 206 ft / 63 m (AMSL)
25 GS IAG 109.90 MHz 10 nm / 19 km 245.06° / 247.88 ° 3.00° 305 ft / 93 m (AMSL)

Popular Alternatives